sensor_id;sensor_type;location;lat;lon;timestamp;pressure;altitude;pressure_sealevel;temperature;humidity
50430;BME280;36359;41.556;-8.418;2023-04-07T00:00:53;99955.84;;;16.38;55.34
50430;BME280;36359;41.556;-8.418;2023-04-07T00:03:19;99943.88;;;16.18;56.86
50430;BME280;36359;41.556;-8.418;2023-04-07T00:05:46;99944.44;;;16.56;57.79
50430;BME280;36359;41.556;-8.418;2023-04-07T00:08:12;99946.22;;;16.70;56.56
50430;BME280;36359;41.556;-8.418;2023-04-07T00:10:37;99947.63;;;16.60;56.28
50430;BME280;36359;41.556;-8.418;2023-04-07T00:13:03;99944.09;;;16.66;56.84
50430;BME280;36359;41.556;-8.418;2023-04-07T00:15:29;99931.75;;;16.76;56.90
50430;BME280;36359;41.556;-8.418;2023-04-07T00:17:55;99936.28;;;16.63;56.64
50430;BME280;36359;41.556;-8.418;2023-04-07T00:20:21;99935.44;;;16.62;57.54
50430;BME280;36359;41.556;-8.418;2023-04-07T00:22:47;99941.78;;;16.69;56.53
50430;BME280;36359;41.556;-8.418;2023-04-07T00:25:13;99941.28;;;16.80;57.26
50430;BME280;36359;41.556;-8.418;2023-04-07T00:27:39;99943.94;;;16.74;55.46
50430;BME280;36359;41.556;-8.418;2023-04-07T00:30:05;99934.03;;;16.45;55.00
50430;BME280;36359;41.556;-8.418;2023-04-07T00:32:31;99929.53;;;16.37;56.35
50430;BME280;36359;41.556;-8.418;2023-04-07T00:34:58;99929.34;;;16.39;58.35
50430;BME280;36359;41.556;-8.418;2023-04-07T00:37:24;99939.38;;;16.31;56.35
50430;BME280;36359;41.556;-8.418;2023-04-07T00:39:50;99930.72;;;16.06;56.04
50430;BME280;36359;41.556;-8.418;2023-04-07T00:42:17;99930.56;;;15.57;57.66
50430;BME280;36359;41.556;-8.418;2023-04-07T00:44:43;99930.06;;;15.83;55.82
50430;BME280;36359;41.556;-8.418;2023-04-07T00:47:09;99933.03;;;15.88;55.07
50430;BME280;36359;41.556;-8.418;2023-04-07T00:49:36;99930.56;;;15.93;54.84
50430;BME280;36359;41.556;-8.418;2023-04-07T00:52:01;99925.16;;;15.78;55.41
50430;BME280;36359;41.556;-8.418;2023-04-07T00:54:29;99932.66;;;15.91;55.13
50430;BME280;36359;41.556;-8.418;2023-04-07T00:56:55;99938.16;;;16.12;57.76
50430;BME280;36359;41.556;-8.418;2023-04-07T00:59:22;99927.38;;;15.89;55.34
50430;BME280;36359;41.556;-8.418;2023-04-07T01:02:15;99924.53;;;15.98;54.86
50430;BME280;36359;41.556;-8.418;2023-04-07T01:10:34;99925.97;;;16.15;53.03
50430;BME280;36359;41.556;-8.418;2023-04-07T01:13:30;99927.97;;;15.85;53.81
50430;BME280;36359;41.556;-8.418;2023-04-07T01:16:15;99922.09;;;16.31;56.81
50430;BME280;36359;41.556;-8.418;2023-04-07T01:18:53;99918.31;;;16.32;54.46
50430;BME280;36359;41.556;-8.418;2023-04-07T01:21:25;99917.66;;;16.08;55.28
50430;BME280;36359;41.556;-8.418;2023-04-07T01:24:17;99925.75;;;15.95;55.57
50430;BME280;36359;41.556;-8.418;2023-04-07T01:26:48;99925.09;;;16.15;57.70
50430;BME280;36359;41.556;-8.418;2023-04-07T01:29:36;99912.41;;;16.07;57.81
50430;BME280;36359;41.556;-8.418;2023-04-07T01:32:07;99909.47;;;16.30;58.08
50430;BME280;36359;41.556;-8.418;2023-04-07T01:34:35;99915.06;;;16.22;57.17
50430;BME280;36359;41.556;-8.418;2023-04-07T01:37:03;99919.78;;;16.06;57.69
50430;BME280;36359;41.556;-8.418;2023-04-07T01:39:29;99915.09;;;16.00;59.12
50430;BME280;36359;41.556;-8.418;2023-04-07T01:41:57;99913.03;;;15.87;59.74
50430;BME280;36359;41.556;-8.418;2023-04-07T01:44:24;99907.25;;;15.76;59.39
50430;BME280;36359;41.556;-8.418;2023-04-07T01:46:51;99912.19;;;15.87;60.10
50430;BME280;36359;41.556;-8.418;2023-04-07T01:49:17;99914.56;;;15.90;58.62
50430;BME280;36359;41.556;-8.418;2023-04-07T01:51:44;99909.63;;;16.00;58.44
50430;BME280;36359;41.556;-8.418;2023-04-07T01:54:14;99910.25;;;15.81;58.28
50430;BME280;36359;41.556;-8.418;2023-04-07T01:56:40;99902.53;;;15.70;58.77
50430;BME280;36359;41.556;-8.418;2023-04-07T01:59:06;99899.41;;;15.73;59.69
50430;BME280;36359;41.556;-8.418;2023-04-07T02:01:32;99892.34;;;15.63;59.41
50430;BME280;36359;41.556;-8.418;2023-04-07T02:07:07;99891.03;;;15.74;58.79
50430;BME280;36359;41.556;-8.418;2023-04-07T02:09:39;99895.28;;;15.77;58.36
50430;BME280;36359;41.556;-8.418;2023-04-07T02:12:08;99894.56;;;15.89;60.28
50430;BME280;36359;41.556;-8.418;2023-04-07T02:14:41;99887.47;;;15.95;60.05
50430;BME280;36359;41.556;-8.418;2023-04-07T02:17:12;99888.03;;;15.54;59.75
50430;BME280;36359;41.556;-8.418;2023-04-07T02:19:40;99886.09;;;15.48;59.79
50430;BME280;36359;41.556;-8.418;2023-04-07T02:22:07;99887.34;;;15.31;59.28
50430;BME280;36359;41.556;-8.418;2023-04-07T02:24:33;99895.06;;;15.42;63.37
50430;BME280;36359;41.556;-8.418;2023-04-07T02:26:59;99887.66;;;15.57;59.85
50430;BME280;36359;41.556;-8.418;2023-04-07T02:29:26;99890.44;;;15.42;58.86
50430;BME280;36359;41.556;-8.418;2023-04-07T02:31:52;99887.31;;;15.45;58.28
50430;BME280;36359;41.556;-8.418;2023-04-07T02:34:17;99896.66;;;15.36;58.13
50430;BME280;36359;41.556;-8.418;2023-04-07T02:36:43;99896.25;;;15.03;60.56
50430;BME280;36359;41.556;-8.418;2023-04-07T02:39:09;99893.13;;;15.21;62.41
50430;BME280;36359;41.556;-8.418;2023-04-07T02:41:35;99887.53;;;15.29;61.34
50430;BME280;36359;41.556;-8.418;2023-04-07T02:44:01;99893.34;;;15.41;63.17
50430;BME280;36359;41.556;-8.418;2023-04-07T02:46:27;99886.56;;;15.37;60.22
50430;BME280;36359;41.556;-8.418;2023-04-07T02:48:52;99886.72;;;14.99;61.38
50430;BME280;36359;41.556;-8.418;2023-04-07T02:51:18;99887.94;;;14.82;61.10
50430;BME280;36359;41.556;-8.418;2023-04-07T02:53:44;99891.31;;;15.28;63.64
50430;BME280;36359;41.556;-8.418;2023-04-07T02:56:10;99880.63;;;15.48;61.35
50430;BME280;36359;41.556;-8.418;2023-04-07T02:58:36;99888.50;;;15.21;62.34
50430;BME280;36359;41.556;-8.418;2023-04-07T03:01:02;99880.28;;;15.21;62.77
50430;BME280;36359;41.556;-8.418;2023-04-07T03:03:30;99880.69;;;15.04;62.00
50430;BME280;36359;41.556;-8.418;2023-04-07T03:06:05;99875.38;;;15.17;65.00
50430;BME280;36359;41.556;-8.418;2023-04-07T03:08:34;99875.38;;;15.32;62.15
50430;BME280;36359;41.556;-8.418;2023-04-07T03:11:00;99877.38;;;15.08;62.33
50430;BME280;36359;41.556;-8.418;2023-04-07T03:13:28;99875.72;;;14.77;61.29
50430;BME280;36359;41.556;-8.418;2023-04-07T03:15:55;99878.63;;;14.91;61.34
50430;BME280;36359;41.556;-8.418;2023-04-07T03:18:23;99865.34;;;14.58;62.42
50430;BME280;36359;41.556;-8.418;2023-04-07T03:20:49;99864.91;;;14.46;62.10
50430;BME280;36359;41.556;-8.418;2023-04-07T03:23:17;99868.81;;;14.52;62.31
50430;BME280;36359;41.556;-8.418;2023-04-07T03:25:43;99870.34;;;14.69;63.21
50430;BME280;36359;41.556;-8.418;2023-04-07T03:28:10;99867.91;;;14.74;62.21
50430;BME280;36359;41.556;-8.418;2023-04-07T03:30:37;99865.63;;;14.63;63.07
50430;BME280;36359;41.556;-8.418;2023-04-07T03:33:03;99864.88;;;14.54;62.83
50430;BME280;36359;41.556;-8.418;2023-04-07T03:35:30;99863.41;;;14.44;62.53
50430;BME280;36359;41.556;-8.418;2023-04-07T03:37:56;99862.63;;;14.35;61.42
50430;BME280;36359;41.556;-8.418;2023-04-07T03:40:21;99856.13;;;14.59;61.27
50430;BME280;36359;41.556;-8.418;2023-04-07T03:42:47;99858.84;;;14.59;64.57
50430;BME280;36359;41.556;-8.418;2023-04-07T03:45:15;99861.28;;;14.98;62.66
50430;BME280;36359;41.556;-8.418;2023-04-07T03:47:46;99859.50;;;14.91;62.40
50430;BME280;36359;41.556;-8.418;2023-04-07T03:50:12;99849.25;;;14.63;59.33
50430;BME280;36359;41.556;-8.418;2023-04-07T03:52:55;99856.72;;;14.46;59.19
50430;BME280;36359;41.556;-8.418;2023-04-07T03:55:27;99857.53;;;14.70;60.72
50430;BME280;36359;41.556;-8.418;2023-04-07T03:57:57;99853.66;;;14.94;61.79
50430;BME280;36359;41.556;-8.418;2023-04-07T04:00:27;99859.69;;;14.89;59.36
50430;BME280;36359;41.556;-8.418;2023-04-07T04:03:19;99853.28;;;14.67;58.15
50430;BME280;36359;41.556;-8.418;2023-04-07T04:06:07;99860.53;;;14.60;57.70
50430;BME280;36359;41.556;-8.418;2023-04-07T04:08:33;99857.38;;;14.34;58.46
50430;BME280;36359;41.556;-8.418;2023-04-07T04:10:59;99865.63;;;14.25;59.49
50430;BME280;36359;41.556;-8.418;2023-04-07T04:13:32;99856.47;;;14.41;65.74
50430;BME280;36359;41.556;-8.418;2023-04-07T04:16:02;99857.72;;;14.53;60.14
50430;BME280;36359;41.556;-8.418;2023-04-07T04:18:28;99855.31;;;14.36;60.43
50430;BME280;36359;41.556;-8.418;2023-04-07T04:20:53;99851.84;;;14.42;62.35
50430;BME280;36359;41.556;-8.418;2023-04-07T04:23:19;99848.22;;;14.26;63.33
50430;BME280;36359;41.556;-8.418;2023-04-07T04:25:46;99863.34;;;14.14;64.67
50430;BME280;36359;41.556;-8.418;2023-04-07T04:28:12;99854.88;;;14.09;66.09
50430;BME280;36359;41.556;-8.418;2023-04-07T04:30:38;99852.44;;;14.14;65.82
50430;BME280;36359;41.556;-8.418;2023-04-07T04:33:04;99843.34;;;14.22;65.48
50430;BME280;36359;41.556;-8.418;2023-04-07T04:35:50;99853.97;;;14.31;65.46
50430;BME280;36359;41.556;-8.418;2023-04-07T04:38:18;99846.69;;;14.09;65.34
50430;BME280;36359;41.556;-8.418;2023-04-07T04:40:51;99855.00;;;13.70;66.65
50430;BME280;36359;41.556;-8.418;2023-04-07T04:43:22;99853.03;;;14.24;67.78
50430;BME280;36359;41.556;-8.418;2023-04-07T04:45:49;99857.63;;;14.09;65.73
50430;BME280;36359;41.556;-8.418;2023-04-07T04:48:17;99854.19;;;13.92;66.43
50430;BME280;36359;41.556;-8.418;2023-04-07T04:50:43;99852.22;;;14.01;67.11
50430;BME280;36359;41.556;-8.418;2023-04-07T04:53:11;99849.56;;;13.70;69.32
50430;BME280;36359;41.556;-8.418;2023-04-07T04:55:44;99856.59;;;13.64;70.19
50430;BME280;36359;41.556;-8.418;2023-04-07T04:58:17;99854.28;;;13.53;70.81
50430;BME280;36359;41.556;-8.418;2023-04-07T05:00:47;99857.69;;;13.55;70.39
50430;BME280;36359;41.556;-8.418;2023-04-07T05:03:12;99850.78;;;13.67;70.20
50430;BME280;36359;41.556;-8.418;2023-04-07T05:05:41;99850.41;;;13.70;69.48
50430;BME280;36359;41.556;-8.418;2023-04-07T05:08:09;99840.91;;;13.66;69.26
50430;BME280;36359;41.556;-8.418;2023-04-07T05:10:38;99851.41;;;13.77;69.81
50430;BME280;36359;41.556;-8.418;2023-04-07T05:13:07;99839.69;;;13.69;70.04
50430;BME280;36359;41.556;-8.418;2023-04-07T05:15:34;99848.47;;;13.79;69.70
50430;BME280;36359;41.556;-8.418;2023-04-07T05:18:01;99846.16;;;13.91;69.69
50430;BME280;36359;41.556;-8.418;2023-04-07T05:20:27;99838.97;;;13.98;68.42
50430;BME280;36359;41.556;-8.418;2023-04-07T05:22:53;99837.44;;;13.95;67.37
50430;BME280;36359;41.556;-8.418;2023-04-07T05:25:25;99840.00;;;13.74;66.66
50430;BME280;36359;41.556;-8.418;2023-04-07T05:27:57;99840.22;;;13.64;65.83
50430;BME280;36359;41.556;-8.418;2023-04-07T05:30:24;99846.59;;;13.79;65.22
50430;BME280;36359;41.556;-8.418;2023-04-07T05:32:52;99840.66;;;13.76;66.00
50430;BME280;36359;41.556;-8.418;2023-04-07T05:35:37;99840.16;;;13.95;64.46
50430;BME280;36359;41.556;-8.418;2023-04-07T05:38:02;99845.78;;;13.94;63.42
50430;BME280;36359;41.556;-8.418;2023-04-07T05:40:28;99840.13;;;13.80;63.53
50430;BME280;36359;41.556;-8.418;2023-04-07T05:42:58;99841.13;;;14.02;62.66
50430;BME280;36359;41.556;-8.418;2023-04-07T05:45:26;99836.88;;;14.00;61.03
50430;BME280;36359;41.556;-8.418;2023-04-07T05:47:51;99845.63;;;14.33;60.68
50430;BME280;36359;41.556;-8.418;2023-04-07T05:50:21;99842.13;;;14.24;58.46
50430;BME280;36359;41.556;-8.418;2023-04-07T05:52:48;99850.19;;;13.80;57.00
50430;BME280;36359;41.556;-8.418;2023-04-07T05:55:21;99844.59;;;13.73;57.31
50430;BME280;36359;41.556;-8.418;2023-04-07T05:57:49;99846.06;;;13.61;57.47
50430;BME280;36359;41.556;-8.418;2023-04-07T06:00:19;99854.84;;;13.71;57.06
50430;BME280;36359;41.556;-8.418;2023-04-07T06:02:55;99852.78;;;13.73;56.65
50430;BME280;36359;41.556;-8.418;2023-04-07T06:05:20;99850.50;;;13.62;56.03
50430;BME280;36359;41.556;-8.418;2023-04-07T06:07:50;99850.81;;;14.05;65.27
50430;BME280;36359;41.556;-8.418;2023-04-07T06:10:16;99851.19;;;14.02;57.07
50430;BME280;36359;41.556;-8.418;2023-04-07T06:12:42;99840.22;;;14.63;64.13
50430;BME280;36359;41.556;-8.418;2023-04-07T06:15:08;99850.00;;;14.87;62.21
50430;BME280;36359;41.556;-8.418;2023-04-07T06:17:34;99839.63;;;14.52;56.69
50430;BME280;36359;41.556;-8.418;2023-04-07T06:19:59;99853.97;;;14.31;56.43
50430;BME280;36359;41.556;-8.418;2023-04-07T06:22:25;99854.28;;;13.99;60.83
50430;BME280;36359;41.556;-8.418;2023-04-07T06:24:51;99849.19;;;13.96;60.75
50430;BME280;36359;41.556;-8.418;2023-04-07T06:27:17;99856.84;;;13.77;62.88
50430;BME280;36359;41.556;-8.418;2023-04-07T06:29:45;99851.25;;;13.94;65.40
50430;BME280;36359;41.556;-8.418;2023-04-07T06:32:11;99854.06;;;13.85;64.52
50430;BME280;36359;41.556;-8.418;2023-04-07T06:34:38;99848.09;;;13.82;64.88
50430;BME280;36359;41.556;-8.418;2023-04-07T06:37:03;99854.28;;;13.99;65.23
50430;BME280;36359;41.556;-8.418;2023-04-07T06:39:31;99854.72;;;13.88;64.61
50430;BME280;36359;41.556;-8.418;2023-04-07T06:41:57;99855.81;;;13.78;64.72
50430;BME280;36359;41.556;-8.418;2023-04-07T06:44:23;99868.13;;;13.74;64.18
50430;BME280;36359;41.556;-8.418;2023-04-07T06:46:48;99861.63;;;13.98;64.08
50430;BME280;36359;41.556;-8.418;2023-04-07T06:49:18;99862.53;;;13.91;63.78
50430;BME280;36359;41.556;-8.418;2023-04-07T06:51:44;99862.47;;;13.99;62.50
50430;BME280;36359;41.556;-8.418;2023-04-07T06:54:09;99868.13;;;13.97;59.46
50430;BME280;36359;41.556;-8.418;2023-04-07T06:56:40;99878.59;;;13.85;58.68
50430;BME280;36359;41.556;-8.418;2023-04-07T06:59:06;99870.59;;;14.07;62.03
50430;BME280;36359;41.556;-8.418;2023-04-07T07:01:32;99875.38;;;14.05;59.72
50430;BME280;36359;41.556;-8.418;2023-04-07T07:03:58;99865.81;;;14.09;59.96
50430;BME280;36359;41.556;-8.418;2023-04-07T07:06:25;99871.91;;;14.11;59.27
50430;BME280;36359;41.556;-8.418;2023-04-07T07:08:52;99865.81;;;14.09;60.19
50430;BME280;36359;41.556;-8.418;2023-04-07T07:11:18;99867.75;;;14.00;61.63
50430;BME280;36359;41.556;-8.418;2023-04-07T07:13:44;99874.88;;;14.24;63.94
50430;BME280;36359;41.556;-8.418;2023-04-07T07:16:10;99873.41;;;14.14;60.15
50430;BME280;36359;41.556;-8.418;2023-04-07T07:18:37;99876.41;;;14.42;59.41
50430;BME280;36359;41.556;-8.418;2023-04-07T07:21:03;99877.91;;;14.29;62.35
50430;BME280;36359;41.556;-8.418;2023-04-07T07:23:29;99881.06;;;14.56;64.25
50430;BME280;36359;41.556;-8.418;2023-04-07T07:25:55;99885.59;;;14.41;63.17
50430;BME280;36359;41.556;-8.418;2023-04-07T07:28:21;99872.91;;;14.86;64.92
50430;BME280;36359;41.556;-8.418;2023-04-07T07:30:46;99880.41;;;14.84;61.54
50430;BME280;36359;41.556;-8.418;2023-04-07T07:33:12;99876.00;;;14.83;59.91
50430;BME280;36359;41.556;-8.418;2023-04-07T07:35:38;99878.25;;;14.79;55.89
50430;BME280;36359;41.556;-8.418;2023-04-07T07:38:05;99885.19;;;14.96;56.01
50430;BME280;36359;41.556;-8.418;2023-04-07T07:40:31;99875.59;;;15.15;55.25
50430;BME280;36359;41.556;-8.418;2023-04-07T07:42:58;99887.91;;;15.26;51.96
50430;BME280;36359;41.556;-8.418;2023-04-07T07:45:24;99891.38;;;15.35;51.58
50430;BME280;36359;41.556;-8.418;2023-04-07T07:47:50;99889.19;;;15.45;52.00
50430;BME280;36359;41.556;-8.418;2023-04-07T07:50:16;99889.88;;;15.47;53.87
50430;BME280;36359;41.556;-8.418;2023-04-07T07:52:41;99892.41;;;15.49;55.29
50430;BME280;36359;41.556;-8.418;2023-04-07T07:55:08;99885.63;;;15.44;55.33
50430;BME280;36359;41.556;-8.418;2023-04-07T07:57:34;99890.72;;;15.48;55.12
50430;BME280;36359;41.556;-8.418;2023-04-07T08:00:01;99889.09;;;15.53;53.74
50430;BME280;36359;41.556;-8.418;2023-04-07T08:02:38;99888.56;;;15.64;51.36
50430;BME280;36359;41.556;-8.418;2023-04-07T08:05:04;99886.69;;;15.80;49.29
50430;BME280;36359;41.556;-8.418;2023-04-07T08:07:30;99886.63;;;15.95;47.94
50430;BME280;36359;41.556;-8.418;2023-04-07T08:09:56;99888.19;;;16.04;49.17
50430;BME280;36359;41.556;-8.418;2023-04-07T08:12:22;99876.94;;;16.20;51.36
50430;BME280;36359;41.556;-8.418;2023-04-07T08:14:47;99883.19;;;16.35;49.74
50430;BME280;36359;41.556;-8.418;2023-04-07T08:17:14;99888.06;;;16.40;48.29
50430;BME280;36359;41.556;-8.418;2023-04-07T08:19:40;99883.91;;;16.44;47.62
50430;BME280;36359;41.556;-8.418;2023-04-07T08:22:05;99882.47;;;16.55;46.94
50430;BME280;36359;41.556;-8.418;2023-04-07T08:24:31;99880.84;;;16.61;45.83
50430;BME280;36359;41.556;-8.418;2023-04-07T08:26:57;99874.41;;;16.75;45.27
50430;BME280;36359;41.556;-8.418;2023-04-07T08:29:23;99872.41;;;16.90;43.98
50430;BME280;36359;41.556;-8.418;2023-04-07T08:31:48;99877.50;;;17.00;43.45
50430;BME280;36359;41.556;-8.418;2023-04-07T08:34:14;99873.78;;;17.08;43.67
50430;BME280;36359;41.556;-8.418;2023-04-07T08:36:40;99866.63;;;17.13;43.35
50430;BME280;36359;41.556;-8.418;2023-04-07T08:39:06;99875.78;;;17.27;43.81
50430;BME280;36359;41.556;-8.418;2023-04-07T08:41:41;99878.09;;;17.30;43.88
50430;BME280;36359;41.556;-8.418;2023-04-07T08:44:09;99879.78;;;17.31;43.72
50430;BME280;36359;41.556;-8.418;2023-04-07T08:46:37;99887.44;;;17.42;43.22
50430;BME280;36359;41.556;-8.418;2023-04-07T08:51:45;99880.75;;;17.65;43.13
50430;BME280;36359;41.556;-8.418;2023-04-07T08:54:13;99883.56;;;17.78;43.16
50430;BME280;36359;41.556;-8.418;2023-04-07T08:56:41;99884.84;;;17.96;42.96
50430;BME280;36359;41.556;-8.418;2023-04-07T08:59:09;99886.16;;;18.13;42.32
50430;BME280;36359;41.556;-8.418;2023-04-07T09:01:36;99882.13;;;18.15;44.71
50430;BME280;36359;41.556;-8.418;2023-04-07T09:04:02;99878.31;;;18.23;41.79
50430;BME280;36359;41.556;-8.418;2023-04-07T09:06:32;99879.81;;;18.26;41.45
50430;BME280;36359;41.556;-8.418;2023-04-07T09:08:59;99879.59;;;18.41;41.06
50430;BME280;36359;41.556;-8.418;2023-04-07T09:11:28;99882.13;;;18.49;41.05
50430;BME280;36359;41.556;-8.418;2023-04-07T09:13:55;99886.34;;;18.58;41.70
50430;BME280;36359;41.556;-8.418;2023-04-07T09:16:21;99879.56;;;18.67;40.46
50430;BME280;36359;41.556;-8.418;2023-04-07T09:18:52;99879.56;;;18.67;42.54
50430;BME280;36359;41.556;-8.418;2023-04-07T09:21:17;99883.81;;;18.83;41.96
50430;BME280;36359;41.556;-8.418;2023-04-07T09:23:43;99887.19;;;18.92;43.17
50430;BME280;36359;41.556;-8.418;2023-04-07T09:26:26;99880.38;;;19.01;44.38
50430;BME280;36359;41.556;-8.418;2023-04-07T09:28:54;99882.88;;;19.16;48.51
50430;BME280;36359;41.556;-8.418;2023-04-07T09:31:43;99880.72;;;19.24;42.85
50430;BME280;36359;41.556;-8.418;2023-04-07T09:36:50;99882.97;;;19.41;50.26
50430;BME280;36359;41.556;-8.418;2023-04-07T09:39:16;99884.94;;;19.34;49.52
50430;BME280;36359;41.556;-8.418;2023-04-07T09:41:41;99878.09;;;19.43;41.79
50430;BME280;36359;41.556;-8.418;2023-04-07T09:44:07;99876.78;;;19.52;42.46
50430;BME280;36359;41.556;-8.418;2023-04-07T09:46:34;99887.56;;;19.60;42.50
50430;BME280;36359;41.556;-8.418;2023-04-07T09:49:03;99881.84;;;19.55;40.80
50430;BME280;36359;41.556;-8.418;2023-04-07T09:51:31;99880.31;;;19.72;40.41
50430;BME280;36359;41.556;-8.418;2023-04-07T09:53:58;99884.78;;;19.67;42.31
50430;BME280;36359;41.556;-8.418;2023-04-07T09:56:25;99886.00;;;19.78;48.72
50430;BME280;36359;41.556;-8.418;2023-04-07T09:58:53;99881.13;;;19.80;50.12
50430;BME280;36359;41.556;-8.418;2023-04-07T10:01:20;99877.84;;;19.96;50.31
50430;BME280;36359;41.556;-8.418;2023-04-07T10:03:47;99886.69;;;20.05;49.76
50430;BME280;36359;41.556;-8.418;2023-04-07T10:06:13;99889.81;;;20.08;48.86
50430;BME280;36359;41.556;-8.418;2023-04-07T10:08:41;99882.81;;;20.12;46.27
50430;BME280;36359;41.556;-8.418;2023-04-07T10:11:08;99873.38;;;20.27;46.13
50430;BME280;36359;41.556;-8.418;2023-04-07T10:13:38;99872.75;;;20.56;45.69
50430;BME280;36359;41.556;-8.418;2023-04-07T10:16:06;99875.97;;;20.72;44.60
50430;BME280;36359;41.556;-8.418;2023-04-07T10:18:33;99876.75;;;20.79;44.11
50430;BME280;36359;41.556;-8.418;2023-04-07T10:21:01;99876.75;;;20.79;42.73
50430;BME280;36359;41.556;-8.418;2023-04-07T10:23:52;99878.00;;;21.01;41.94
50430;BME280;36359;41.556;-8.418;2023-04-07T10:26:25;99877.00;;;20.96;40.56
50430;BME280;36359;41.556;-8.418;2023-04-07T10:28:57;99876.31;;;21.19;36.43
50430;BME280;36359;41.556;-8.418;2023-04-07T10:31:25;99878.75;;;21.08;40.39
50430;BME280;36359;41.556;-8.418;2023-04-07T10:33:52;99876.09;;;21.39;39.54
50430;BME280;36359;41.556;-8.418;2023-04-07T10:36:19;99872.53;;;21.50;39.33
50430;BME280;36359;41.556;-8.418;2023-04-07T10:41:36;99881.59;;;21.57;38.70
50430;BME280;36359;41.556;-8.418;2023-04-07T10:44:04;99878.13;;;21.62;39.61
50430;BME280;36359;41.556;-8.418;2023-04-07T10:47:12;99883.09;;;21.71;40.48
50430;BME280;36359;41.556;-8.418;2023-04-07T10:49:36;99889.28;;;21.97;41.85
50430;BME280;36359;41.556;-8.418;2023-04-07T10:54:40;99893.13;;;22.26;42.16
50430;BME280;36359;41.556;-8.418;2023-04-07T10:57:13;99887.31;;;22.16;40.39
50430;BME280;36359;41.556;-8.418;2023-04-07T11:02:39;99897.03;;;22.07;38.01
50430;BME280;36359;41.556;-8.418;2023-04-07T11:05:05;99890.38;;;22.26;39.90
50430;BME280;36359;41.556;-8.418;2023-04-07T11:07:46;99898.19;;;22.29;41.44
50430;BME280;36359;41.556;-8.418;2023-04-07T11:10:14;99899.22;;;22.16;40.11
50430;BME280;36359;41.556;-8.418;2023-04-07T11:12:41;99886.88;;;22.19;39.05
50430;BME280;36359;41.556;-8.418;2023-04-07T11:15:21;99888.84;;;22.42;39.52
50430;BME280;36359;41.556;-8.418;2023-04-07T11:18:12;99890.66;;;22.36;39.89
50430;BME280;36359;41.556;-8.418;2023-04-07T11:20:43;99888.25;;;22.52;38.78
50430;BME280;36359;41.556;-8.418;2023-04-07T11:23:09;99886.09;;;22.42;39.61
50430;BME280;36359;41.556;-8.418;2023-04-07T11:25:35;99878.03;;;22.52;38.44
50430;BME280;36359;41.556;-8.418;2023-04-07T11:28:04;99873.94;;;22.55;39.52
50430;BME280;36359;41.556;-8.418;2023-04-07T11:30:30;99880.59;;;22.65;38.36
50430;BME280;36359;41.556;-8.418;2023-04-07T11:32:56;99874.69;;;22.74;38.78
50430;BME280;36359;41.556;-8.418;2023-04-07T11:35:22;99864.56;;;22.67;38.74
50430;BME280;36359;41.556;-8.418;2023-04-07T11:37:48;99867.72;;;22.71;38.61
50430;BME280;36359;41.556;-8.418;2023-04-07T11:40:33;99867.59;;;22.66;38.35
50430;BME280;36359;41.556;-8.418;2023-04-07T11:42:59;99862.06;;;23.01;38.53
50430;BME280;36359;41.556;-8.418;2023-04-07T11:45:26;99862.66;;;23.15;37.94
50430;BME280;36359;41.556;-8.418;2023-04-07T11:47:51;99856.13;;;23.21;37.74
50430;BME280;36359;41.556;-8.418;2023-04-07T11:52:47;99862.78;;;23.49;37.57
50430;BME280;36359;41.556;-8.418;2023-04-07T11:55:30;99872.31;;;23.41;36.71
50430;BME280;36359;41.556;-8.418;2023-04-07T11:58:04;99867.56;;;23.13;34.23
50430;BME280;36359;41.556;-8.418;2023-04-07T12:00:30;99857.50;;;23.07;33.02
50430;BME280;36359;41.556;-8.418;2023-04-07T12:02:56;99863.63;;;23.49;31.07
50430;BME280;36359;41.556;-8.418;2023-04-07T12:05:22;99863.91;;;23.65;31.60
50430;BME280;36359;41.556;-8.418;2023-04-07T12:07:53;99865.09;;;23.80;32.83
50430;BME280;36359;41.556;-8.418;2023-04-07T12:10:23;99860.63;;;23.51;34.40
50430;BME280;36359;41.556;-8.418;2023-04-07T12:12:52;99861.22;;;23.82;31.47
50430;BME280;36359;41.556;-8.418;2023-04-07T12:15:18;99859.28;;;24.11;28.99
50430;BME280;36359;41.556;-8.418;2023-04-07T12:17:45;99868.72;;;23.69;32.77
50430;BME280;36359;41.556;-8.418;2023-04-07T12:20:12;99862.72;;;23.72;31.59
50430;BME280;36359;41.556;-8.418;2023-04-07T12:22:39;99856.47;;;23.65;32.37
50430;BME280;36359;41.556;-8.418;2023-04-07T12:25:05;99858.22;;;23.83;32.29
50430;BME280;36359;41.556;-8.418;2023-04-07T12:27:31;99854.63;;;23.99;32.37
50430;BME280;36359;41.556;-8.418;2023-04-07T12:29:58;99855.75;;;24.15;33.79
50430;BME280;36359;41.556;-8.418;2023-04-07T12:32:23;99855.78;;;23.87;34.10
50430;BME280;36359;41.556;-8.418;2023-04-07T12:34:50;99848.28;;;24.16;31.81
50430;BME280;36359;41.556;-8.418;2023-04-07T12:37:16;99859.78;;;24.24;30.83
50430;BME280;36359;41.556;-8.418;2023-04-07T12:39:41;99855.00;;;24.20;32.03
50430;BME280;36359;41.556;-8.418;2023-04-07T12:42:07;99845.25;;;24.17;33.01
50430;BME280;36359;41.556;-8.418;2023-04-07T12:44:36;99849.97;;;24.34;31.27
50430;BME280;36359;41.556;-8.418;2023-04-07T12:47:02;99839.72;;;24.34;32.98
50430;BME280;36359;41.556;-8.418;2023-04-07T12:49:28;99852.13;;;24.15;32.99
50430;BME280;36359;41.556;-8.418;2023-04-07T12:51:54;99843.16;;;24.08;33.05
50430;BME280;36359;41.556;-8.418;2023-04-07T12:54:20;99844.75;;;24.03;33.81
50430;BME280;36359;41.556;-8.418;2023-04-07T12:56:46;99843.06;;;24.19;32.61
50430;BME280;36359;41.556;-8.418;2023-04-07T12:59:12;99845.00;;;24.53;33.09
50430;BME280;36359;41.556;-8.418;2023-04-07T13:01:38;99838.97;;;24.56;32.83
50430;BME280;36359;41.556;-8.418;2023-04-07T13:04:04;99838.63;;;24.52;31.91
50430;BME280;36359;41.556;-8.418;2023-04-07T13:06:31;99837.72;;;24.30;31.37
50430;BME280;36359;41.556;-8.418;2023-04-07T13:08:56;99840.66;;;24.57;31.44
50430;BME280;36359;41.556;-8.418;2023-04-07T13:11:22;99836.59;;;24.64;32.11
50430;BME280;36359;41.556;-8.418;2023-04-07T13:13:48;99840.06;;;24.72;31.06
50430;BME280;36359;41.556;-8.418;2023-04-07T13:16:13;99829.16;;;24.87;32.29
50430;BME280;36359;41.556;-8.418;2023-04-07T13:18:39;99827.09;;;24.99;31.08
50430;BME280;36359;41.556;-8.418;2023-04-07T13:21:05;99828.53;;;24.80;32.75